createdAt,value
2018-10-09T00:00:01.178Z,98780.97
2018-10-09T00:20:37.373Z,98792.62
2018-10-09T00:41:14.492Z,98799.63
2018-10-09T01:22:48.380Z,98785.93
2018-10-09T01:43:31.641Z,98795.72
2018-10-09T02:04:11.829Z,98794.59
2018-10-09T02:24:49.524Z,98792.44
2018-10-09T02:45:29.436Z,98784.39
2018-10-09T03:06:07.135Z,98779.30
2018-10-09T03:26:47.972Z,98792.41
2018-10-09T03:47:25.087Z,98797.94
2018-10-09T04:08:05.830Z,98800.20
2018-10-09T04:28:49.768Z,98809.28
2018-10-09T04:49:31.795Z,98793.45
2018-10-09T05:10:14.437Z,98795.29
2018-10-09T05:30:53.720Z,98774.02
2018-10-09T05:51:37.892Z,98793.39
2018-10-09T06:12:15.308Z,98795.14
2018-10-09T06:32:49.356Z,98820.43
2018-10-09T06:53:28.654Z,98832.19
2018-10-09T07:14:09.118Z,98857.27
2018-10-09T07:34:51.610Z,98863.33
2018-10-09T07:55:31.637Z,98866.77
2018-10-09T08:16:17.375Z,98893.33
2018-10-09T08:36:54.167Z,98880.33
2018-10-09T08:57:38.651Z,98877.22
2018-10-09T09:18:21.915Z,98877.56
2018-10-09T09:39:05.176Z,98859.24
2018-10-09T09:59:45.695Z,98855.15
2018-10-09T10:20:31.022Z,98837.89
2018-10-09T10:41:07.894Z,98817.78
2018-10-09T11:01:44.729Z,98793.87
2018-10-09T11:22:25.500Z,98786.31
2018-10-09T11:43:03.840Z,98771.38
2018-10-09T12:03:46.373Z,98741.33
2018-10-09T12:24:24.213Z,98740.17
2018-10-09T12:45:00.987Z,98736.81
2018-10-09T13:05:41.516Z,98726.23
2018-10-09T13:26:17.095Z,98722.13
2018-10-09T13:46:59.435Z,98693.45
2018-10-09T14:07:37.779Z,98671.95
2018-10-09T14:28:21.960Z,98667.58
2018-10-09T14:49:02.151Z,98657.13
2018-10-09T15:09:44.582Z,98659.08
2018-10-09T15:30:29.163Z,98676.19
2018-10-09T15:51:09.162Z,98679.61
2018-10-09T16:11:52.428Z,98686.58
2018-10-09T16:32:33.082Z,98697.95
2018-10-09T16:53:14.054Z,98707.11
2018-10-09T17:13:53.289Z,98734.33
2018-10-09T17:34:32.570Z,98749.97
2018-10-09T17:55:08.749Z,98760.83
2018-10-09T18:15:46.171Z,98748.76
2018-10-09T18:36:26.365Z,98754.09
2018-10-09T18:57:04.703Z,98757.55
2018-10-09T19:17:40.934Z,98771.76
2018-10-09T19:38:25.082Z,98777.93
2018-10-09T19:59:09.594Z,98790.20
2018-10-09T20:19:57.743Z,98793.67
2018-10-09T20:40:34.246Z,98790.16
2018-10-09T21:01:11.360Z,98795.97
2018-10-09T21:21:51.910Z,98777.39
2018-10-09T21:42:29.890Z,98770.64
2018-10-09T22:03:08.246Z,98750.98
2018-10-09T22:23:47.504Z,98748.23
2018-10-09T22:44:28.610Z,98755.16
2018-10-09T23:05:07.876Z,98752.04
2018-10-09T23:25:47.142Z,98752.02
2018-10-09T23:46:28.560Z,98749.95
